createdAt,value
2019-05-30T00:00:12.469Z,58.40
2019-05-30T00:02:31.288Z,58.70
2019-05-30T00:05:02.669Z,58.90
2019-05-30T00:07:33.127Z,59.20
2019-05-30T00:10:04.984Z,59.60
2019-05-30T00:12:35.415Z,59.90
2019-05-30T00:15:06.429Z,59.90
2019-05-30T00:17:36.845Z,60.50
2019-05-30T00:20:07.528Z,61.20
2019-05-30T00:22:37.840Z,61.70
2019-05-30T00:25:08.107Z,62.00
2019-05-30T00:27:38.427Z,62.30
2019-05-30T00:30:23.075Z,62.70
2019-05-30T00:32:40.828Z,63.10
2019-05-30T00:35:11.056Z,63.70
2019-05-30T00:37:41.326Z,63.50
2019-05-30T00:40:11.723Z,64.10
2019-05-30T00:42:41.982Z,63.90
2019-05-30T00:45:20.992Z,64.20
2019-05-30T00:47:44.623Z,64.40
2019-05-30T00:50:14.903Z,64.90
2019-05-30T00:52:45.172Z,65.20
2019-05-30T00:55:15.438Z,65.40
2019-05-30T00:57:45.525Z,66.00
2019-05-30T01:00:15.884Z,66.40
2019-05-30T01:02:46.195Z,66.70
2019-05-30T01:05:16.446Z,67.10
2019-05-30T01:07:46.763Z,67.40
2019-05-30T01:10:17.394Z,67.70
2019-05-30T01:12:47.664Z,68.00
2019-05-30T01:15:18.482Z,68.20
2019-05-30T01:17:48.729Z,67.70
2019-05-30T01:20:19.957Z,67.50
2019-05-30T01:22:50.220Z,67.30
2019-05-30T01:25:20.461Z,67.90
2019-05-30T01:27:50.742Z,67.70
2019-05-30T01:30:21.417Z,67.80
2019-05-30T01:32:52.047Z,67.70
2019-05-30T01:35:22.286Z,67.80
2019-05-30T01:37:52.540Z,67.90
2019-05-30T01:40:22.812Z,68.20
2019-05-30T01:42:53.085Z,68.40
2019-05-30T01:45:23.279Z,67.80
2019-05-30T01:47:53.650Z,67.80
2019-05-30T01:50:24.492Z,67.70
2019-05-30T01:52:54.724Z,67.40
2019-05-30T01:55:25.132Z,67.20
2019-05-30T01:57:55.343Z,67.20
2019-05-30T02:00:38.247Z,67.10
2019-05-30T02:03:09.481Z,67.10
2019-05-30T02:05:40.189Z,67.40
2019-05-30T02:08:10.418Z,68.10
2019-05-30T02:10:40.630Z,67.60
2019-05-30T02:13:10.921Z,67.70
2019-05-30T02:15:41.182Z,68.00
2019-05-30T02:18:11.467Z,67.90
2019-05-30T02:20:41.808Z,67.80
2019-05-30T02:23:12.063Z,67.90
2019-05-30T02:25:42.201Z,68.20
2019-05-30T02:28:12.377Z,68.20
2019-05-30T02:30:42.601Z,67.90
2019-05-30T02:33:13.073Z,68.30
2019-05-30T02:35:43.392Z,68.10
2019-05-30T02:38:13.517Z,68.10
2019-05-30T02:40:43.750Z,68.30
2019-05-30T02:43:14.003Z,69.10
2019-05-30T02:45:44.244Z,68.60
2019-05-30T02:48:14.442Z,68.50
2019-05-30T02:50:44.754Z,69.00
2019-05-30T02:53:15.023Z,69.20
2019-05-30T02:55:45.281Z,69.30
2019-05-30T02:58:15.626Z,69.40
2019-05-30T03:00:45.866Z,69.50
2019-05-30T03:03:16.100Z,70.20
2019-05-30T03:05:46.460Z,70.00
2019-05-30T03:08:16.793Z,69.70
2019-05-30T03:10:47.093Z,70.30
2019-05-30T03:13:17.494Z,70.20
2019-05-30T03:15:47.707Z,70.70
2019-05-30T03:18:17.989Z,70.60
2019-05-30T03:20:48.174Z,70.40
2019-05-30T03:23:18.457Z,70.70
2019-05-30T03:25:48.680Z,70.90
2019-05-30T03:28:19.007Z,71.00
2019-05-30T03:30:49.337Z,71.00
2019-05-30T03:33:37.520Z,71.20
2019-05-30T03:35:51.580Z,71.60
2019-05-30T03:38:21.812Z,71.30
2019-05-30T03:40:52.524Z,71.80
2019-05-30T03:43:22.867Z,71.90
2019-05-30T03:45:53.704Z,72.40
2019-05-30T03:48:26.831Z,72.00
2019-05-30T03:51:00.051Z,72.30
2019-05-30T03:53:30.573Z,72.30
2019-05-30T03:56:11.562Z,72.60
2019-05-30T03:58:57.387Z,72.80
2019-05-30T04:01:36.091Z,73.00
2019-05-30T04:04:17.255Z,73.20
2019-05-30T04:06:54.685Z,73.50
2019-05-30T04:09:28.048Z,73.60
2019-05-30T04:12:15.004Z,73.70
2019-05-30T04:14:51.230Z,74.10
2019-05-30T04:17:21.492Z,74.70
2019-05-30T04:19:51.678Z,75.00
2019-05-30T04:22:21.960Z,74.80
2019-05-30T04:24:52.163Z,75.20
2019-05-30T04:27:22.290Z,75.50
2019-05-30T04:29:52.475Z,75.10
2019-05-30T04:32:22.720Z,75.30
2019-05-30T04:34:52.871Z,75.60
2019-05-30T04:37:23.101Z,76.10
2019-05-30T04:39:53.306Z,76.50
2019-05-30T04:42:23.465Z,76.70
2019-05-30T04:44:53.574Z,76.70
2019-05-30T04:47:23.775Z,76.80
2019-05-30T04:49:53.903Z,76.90
2019-05-30T04:52:25.004Z,77.50
2019-05-30T04:54:55.322Z,77.70
2019-05-30T04:57:27.116Z,78.00
2019-05-30T04:59:57.481Z,78.00
2019-05-30T05:02:27.667Z,77.90
2019-05-30T05:04:58.042Z,78.50
2019-05-30T05:07:28.176Z,78.20
2019-05-30T05:09:58.297Z,78.10
2019-05-30T05:12:28.415Z,79.10
2019-05-30T05:14:58.623Z,78.20
2019-05-30T05:17:28.823Z,78.70
2019-05-30T05:19:59.048Z,78.90
2019-05-30T05:22:29.251Z,79.10
2019-05-30T05:24:59.460Z,79.20
2019-05-30T05:27:29.595Z,79.50
2019-05-30T05:29:59.732Z,79.40
2019-05-30T05:32:29.938Z,79.30
2019-05-30T05:35:00.202Z,79.80
2019-05-30T05:37:30.270Z,80.00
2019-05-30T05:40:00.527Z,80.40
2019-05-30T05:42:30.584Z,80.40
2019-05-30T05:45:00.800Z,80.60
2019-05-30T05:47:30.992Z,80.50
2019-05-30T05:50:01.202Z,80.90
2019-05-30T05:52:31.295Z,80.80
2019-05-30T05:55:01.436Z,81.00
2019-05-30T05:57:31.620Z,81.30
2019-05-30T06:00:01.753Z,81.00
2019-05-30T06:02:31.946Z,80.90
2019-05-30T06:05:02.054Z,81.40
2019-05-30T06:07:32.272Z,81.20
2019-05-30T06:10:02.484Z,81.00
2019-05-30T06:12:32.725Z,81.60
2019-05-30T06:15:03.201Z,81.70
2019-05-30T06:17:33.382Z,81.80
2019-05-30T06:20:03.608Z,81.70
2019-05-30T06:22:33.799Z,81.90
2019-05-30T06:25:05.298Z,82.00
2019-05-30T06:27:35.453Z,83.10
2019-05-30T06:30:07.087Z,82.10
2019-05-30T06:32:37.282Z,81.90
2019-05-30T06:35:07.797Z,82.50
2019-05-30T06:37:37.980Z,82.40
2019-05-30T06:40:08.865Z,82.50
2019-05-30T06:42:39.055Z,82.60
2019-05-30T06:45:09.433Z,83.20
2019-05-30T06:47:39.652Z,82.70
2019-05-30T06:50:09.849Z,83.70
2019-05-30T06:52:40.059Z,82.70
2019-05-30T06:55:10.452Z,83.40
2019-05-30T06:57:40.921Z,82.70
2019-05-30T07:00:11.235Z,83.60
2019-05-30T07:02:41.526Z,83.80
2019-05-30T07:05:12.650Z,84.10
2019-05-30T07:07:43.303Z,83.80
2019-05-30T07:10:14.229Z,84.00
2019-05-30T07:12:44.457Z,84.40
2019-05-30T07:15:15.078Z,85.50
2019-05-30T07:17:45.188Z,85.60
2019-05-30T07:20:15.653Z,85.70
2019-05-30T07:22:45.834Z,86.70
2019-05-30T07:25:16.215Z,85.90
2019-05-30T07:27:46.425Z,86.70
2019-05-30T07:30:17.102Z,86.70
2019-05-30T07:32:47.225Z,86.50
2019-05-30T07:35:17.521Z,87.70
2019-05-30T07:37:47.634Z,87.20
2019-05-30T07:40:19.702Z,87.20
2019-05-30T07:42:50.045Z,86.00
2019-05-30T07:45:20.360Z,87.20
2019-05-30T07:47:50.582Z,87.20
2019-05-30T07:50:20.749Z,88.10
2019-05-30T07:52:50.967Z,87.50
2019-05-30T07:55:22.340Z,87.60
2019-05-30T07:57:52.480Z,87.10
2019-05-30T08:00:23.429Z,87.30
